createdAt,value
2018-11-13T00:02:47.248Z,101508.39
2018-11-13T00:05:30.064Z,101519.41
2018-11-13T00:08:04.409Z,101523.29
2018-11-13T00:16:28.443Z,101506.07
2018-11-13T00:19:07.925Z,101520.05
2018-11-13T00:21:53.463Z,101528.76
2018-11-13T00:24:41.993Z,101536.56
2018-11-13T00:27:21.714Z,101538.21
2018-11-13T00:29:59.854Z,101541.81
2018-11-13T00:32:42.165Z,101551.05
2018-11-13T00:35:21.606Z,101567.41
2018-11-13T00:40:50.836Z,101573.92
2018-11-13T00:43:32.594Z,101569.47
2018-11-13T00:46:15.626Z,101564.24
2018-11-13T00:51:48.303Z,101563.91
2018-11-13T00:54:31.354Z,101555.95
2018-11-13T01:00:44.032Z,101570.42
2018-11-13T01:03:23.916Z,101577.53
2018-11-13T01:14:23.804Z,101585.66
2018-11-13T01:17:11.757Z,101590.17
2018-11-13T01:22:43.694Z,101599.73
2018-11-13T01:28:14.553Z,101591.02
2018-11-13T01:33:52.598Z,101583.72
2018-11-13T01:36:27.580Z,101582.17
2018-11-13T01:39:01.831Z,101570.81
2018-11-13T01:46:58.398Z,101580.10
2018-11-13T01:49:43.541Z,101576.74
2018-11-13T02:01:16.388Z,101584.62
2018-11-13T02:04:06.016Z,101588.70
2018-11-13T02:06:47.177Z,101581.91
2018-11-13T02:09:25.707Z,101566.22
2018-11-13T02:12:14.469Z,101561.67
2018-11-13T02:14:59.333Z,101554.85
2018-11-13T02:17:41.775Z,101560.16
2018-11-13T02:20:15.712Z,101557.89
2018-11-13T02:22:47.546Z,101555.77
2018-11-13T02:25:19.580Z,101546.29
2018-11-13T02:27:50.706Z,101551.22
2018-11-13T02:30:23.105Z,101556.88
2018-11-13T02:32:54.802Z,101557.97
2018-11-13T02:35:26.246Z,101558.34
2018-11-13T02:37:57.022Z,101555.61
2018-11-13T02:40:28.843Z,101555.87
2018-11-13T02:43:00.278Z,101550.16
2018-11-13T02:45:31.754Z,101550.67
2018-11-13T02:48:02.668Z,101549.94
2018-11-13T02:50:34.136Z,101548.23
2018-11-13T02:53:05.376Z,101555.03
2018-11-13T02:55:37.410Z,101540.79
2018-11-13T02:58:08.635Z,101553.62
2018-11-13T03:00:40.015Z,101559.94
2018-11-13T03:03:11.377Z,101555.20
2018-11-13T03:05:42.302Z,101564.25
2018-11-13T03:08:13.362Z,101572.02
2018-11-13T03:10:44.182Z,101567.92
2018-11-13T03:13:15.325Z,101554.06
2018-11-13T03:15:46.329Z,101551.63
2018-11-13T03:18:18.291Z,101554.52
2018-11-13T03:20:49.584Z,101558.42
2018-11-13T03:23:20.388Z,101556.72
2018-11-13T03:25:51.453Z,101559.86
2018-11-13T03:28:22.520Z,101565.61
2018-11-13T03:30:53.529Z,101564.69
2018-11-13T03:33:24.355Z,101558.87
2018-11-13T03:35:55.504Z,101565.45
2018-11-13T03:38:26.422Z,101567.38
2018-11-13T03:40:59.751Z,101567.22
2018-11-13T03:43:30.763Z,101571.28
2018-11-13T03:46:03.789Z,101561.33
2018-11-13T03:48:37.040Z,101548.00
2018-11-13T03:51:07.390Z,101543.27
2018-11-13T03:53:37.787Z,101538.53
2018-11-13T03:56:08.005Z,101534.52
2018-11-13T03:58:38.313Z,101531.03
2018-11-13T04:01:08.684Z,101532.52
2018-11-13T04:03:39.084Z,101528.25
2018-11-13T04:06:10.314Z,101534.26
2018-11-13T04:08:41.622Z,101538.30
2018-11-13T04:11:12.444Z,101536.38
2018-11-13T04:13:43.258Z,101525.88
2018-11-13T04:16:19.102Z,101517.48
2018-11-13T04:18:49.955Z,101524.59
2018-11-13T04:21:20.891Z,101530.86
2018-11-13T04:23:52.188Z,101530.37
2018-11-13T04:26:23.256Z,101544.14
2018-11-13T04:28:54.329Z,101546.83
2018-11-13T04:31:25.270Z,101550.51
2018-11-13T04:33:58.366Z,101556.19
2018-11-13T04:36:29.714Z,101555.72
2018-11-13T04:39:00.863Z,101562.48
2018-11-13T04:41:33.688Z,101570.14
2018-11-13T04:44:04.753Z,101581.09
2018-11-13T04:46:35.993Z,101576.42
2018-11-13T04:49:17.402Z,101588.31
2018-11-13T04:51:52.268Z,101577.92
2018-11-13T04:54:28.745Z,101573.27
2018-11-13T04:57:04.630Z,101568.03
2018-11-13T04:59:40.629Z,101568.87
2018-11-13T05:07:35.995Z,101538.86
2018-11-13T05:10:12.769Z,101541.17
2018-11-13T05:12:47.607Z,101543.34
2018-11-13T05:15:21.876Z,101562.50
2018-11-13T05:17:59.311Z,101579.70
2018-11-13T05:20:39.346Z,101597.41
2018-11-13T05:23:24.021Z,101590.69
2018-11-13T05:26:08.112Z,101592.02
2018-11-13T05:32:31.415Z,101601.62
2018-11-13T05:35:10.549Z,101596.73
2018-11-13T05:37:46.007Z,101594.43
2018-11-13T05:40:29.632Z,101594.53
2018-11-13T05:43:12.129Z,101604.14
2018-11-13T05:48:32.811Z,101600.84
2018-11-13T05:51:09.643Z,101602.25
2018-11-13T05:53:58.442Z,101595.91
2018-11-13T05:59:29.067Z,101590.75
2018-11-13T06:04:56.124Z,101590.03
2018-11-13T06:10:25.030Z,101599.09
2018-11-13T06:15:54.226Z,101583.56
2018-11-13T06:18:34.469Z,101582.28
2018-11-13T06:21:11.772Z,101602.41
2018-11-13T06:29:18.484Z,101601.38
2018-11-13T06:32:02.382Z,101587.75
2018-11-13T06:37:34.037Z,101587.55
2018-11-13T06:40:25.214Z,101586.80
2018-11-13T06:43:07.102Z,101594.83
2018-11-13T06:45:49.287Z,101597.69
2018-11-13T06:48:40.122Z,101600.97
2018-11-13T07:00:31.787Z,101604.98
2018-11-13T07:03:26.736Z,101599.76
2018-11-13T07:09:09.533Z,101613.95
2018-11-13T07:15:05.270Z,101600.80
2018-11-13T07:23:22.372Z,101598.10
2018-11-13T07:26:06.776Z,101599.10
2018-11-13T07:34:39.882Z,101599.86
2018-11-13T07:49:25.145Z,101592.75
2018-11-13T08:01:56.887Z,101572.37
2018-11-13T08:07:57.451Z,101574.44
2018-11-13T08:13:29.922Z,101580.88
2018-11-13T08:16:08.055Z,101582.27
2018-11-13T08:21:47.288Z,101572.17
2018-11-13T08:24:52.423Z,101575.47
2018-11-13T09:02:14.767Z,101614.98
2018-11-13T09:04:56.866Z,101614.20
2018-11-13T09:07:32.479Z,101622.48
2018-11-13T09:10:10.228Z,101633.02
2018-11-13T09:12:43.112Z,101628.57
2018-11-13T09:15:20.440Z,101616.43
2018-11-13T09:18:04.511Z,101621.67
2018-11-13T09:20:45.933Z,101624.97
2018-11-13T09:23:18.252Z,101620.98
2018-11-13T09:25:52.224Z,101619.73
2018-11-13T09:28:24.936Z,101619.73
2018-11-13T09:31:13.226Z,101618.10
2018-11-13T09:33:55.227Z,101601.77
2018-11-13T09:39:16.586Z,101618.84
2018-11-13T09:41:49.715Z,101626.73
2018-11-13T09:44:36.695Z,101620.18
2018-11-13T09:47:10.605Z,101614.77
2018-11-13T09:49:45.612Z,101613.97
2018-11-13T09:52:24.313Z,101618.81
2018-11-13T09:55:01.842Z,101626.72
2018-11-13T09:57:42.909Z,101630.91
2018-11-13T10:06:22.448Z,101641.67
2018-11-13T10:12:21.718Z,101631.58
2018-11-13T10:18:06.944Z,101628.14
2018-11-13T10:20:45.798Z,101633.00
2018-11-13T10:23:19.066Z,101628.47
2018-11-13T10:28:47.427Z,101629.93
2018-11-13T10:31:26.956Z,101632.20
2018-11-13T10:34:05.932Z,101633.21
2018-11-13T10:36:47.173Z,101637.14
2018-11-13T10:42:06.487Z,101626.15
2018-11-13T10:44:46.616Z,101623.61
2018-11-13T10:50:18.110Z,101646.56
2018-11-13T10:55:50.869Z,101639.80
2018-11-13T10:58:29.824Z,101627.07
2018-11-13T11:09:44.769Z,101629.87
2018-11-13T11:12:26.918Z,101639.27
2018-11-13T11:15:07.355Z,101642.39
2018-11-13T11:17:45.061Z,101633.48
2018-11-13T11:20:28.347Z,101634.10
2018-11-13T11:25:46.243Z,101626.78
2018-11-13T11:28:40.590Z,101637.69
2018-11-13T11:31:19.814Z,101637.44
2018-11-13T11:36:57.365Z,101632.63
2018-11-13T11:39:38.825Z,101640.48
2018-11-13T11:42:23.019Z,101638.79
2018-11-13T11:45:15.896Z,101636.41
2018-11-13T11:48:05.242Z,101648.48
2018-11-13T11:51:06.532Z,101643.02
2018-11-13T12:05:05.364Z,101649.07
2018-11-13T12:16:33.045Z,101645.94
2018-11-13T12:19:09.466Z,101646.89
2018-11-13T12:21:57.327Z,101649.30
2018-11-13T12:24:50.443Z,101642.84
2018-11-13T12:27:26.168Z,101664.37
2018-11-13T12:30:16.449Z,101655.84
2018-11-13T12:33:00.282Z,101648.92
2018-11-13T12:35:39.224Z,101647.91
2018-11-13T12:38:11.601Z,101655.39
2018-11-13T12:40:50.723Z,101653.63
2018-11-13T12:46:16.844Z,101655.90
2018-11-13T12:48:52.821Z,101661.48
2018-11-13T12:51:32.836Z,101662.49
2018-11-13T12:54:05.316Z,101654.38
2018-11-13T12:56:36.363Z,101659.75
2018-11-13T12:59:08.492Z,101661.15
2018-11-13T13:01:39.502Z,101662.73
2018-11-13T13:04:11.531Z,101650.59
2018-11-13T13:06:43.501Z,101650.11
2018-11-13T13:09:16.616Z,101658.70
2018-11-13T13:11:48.356Z,101653.05
2018-11-13T13:14:23.454Z,101664.22
2018-11-13T13:17:07.034Z,101659.12
2018-11-13T13:19:40.784Z,101657.98
2018-11-13T13:24:52.598Z,101661.73
2018-11-13T13:27:37.208Z,101662.24
2018-11-13T13:30:14.442Z,101669.94
2018-11-13T13:32:53.866Z,101666.22
2018-11-13T13:36:04.097Z,101665.68
2018-11-13T13:38:38.740Z,101658.77
2018-11-13T13:41:09.725Z,101671.22
2018-11-13T13:43:40.828Z,101674.15
2018-11-13T13:46:12.173Z,101668.70
2018-11-13T13:48:44.481Z,101671.70
2018-11-13T13:51:15.440Z,101670.59
2018-11-13T13:53:47.368Z,101678.76
2018-11-13T13:56:18.093Z,101675.84
2018-11-13T13:58:49.729Z,101677.70
2018-11-13T14:01:22.003Z,101671.91
2018-11-13T14:03:53.888Z,101670.56
2018-11-13T14:06:25.337Z,101676.44
2018-11-13T14:09:01.842Z,101674.20
2018-11-13T14:11:42.787Z,101681.50
2018-11-13T14:14:15.861Z,101688.28
2018-11-13T14:16:47.313Z,101679.03
2018-11-13T14:19:24.044Z,101679.07
2018-11-13T14:21:57.524Z,101677.06
2018-11-13T14:24:30.441Z,101677.06
2018-11-13T14:27:05.361Z,101688.77
2018-11-13T14:29:41.471Z,101691.65
2018-11-13T14:32:12.302Z,101691.53
2018-11-13T14:34:43.860Z,101699.02
2018-11-13T14:37:24.758Z,101703.84
2018-11-13T14:39:55.986Z,101705.13
2018-11-13T14:42:33.434Z,101709.69
2018-11-13T14:45:06.419Z,101708.32
2018-11-13T14:47:37.663Z,101719.14
2018-11-13T14:50:21.393Z,101719.52
2018-11-13T14:55:32.372Z,101725.37
2018-11-13T14:58:07.305Z,101731.81
2018-11-13T15:00:40.949Z,101735.10
2018-11-13T15:03:13.324Z,101733.45
2018-11-13T15:05:44.513Z,101732.92
2018-11-13T15:08:19.567Z,101732.48
2018-11-13T15:10:52.088Z,101739.21
2018-11-13T15:13:27.099Z,101735.91
2018-11-13T15:15:58.683Z,101743.42
2018-11-13T15:18:34.809Z,101735.34
2018-11-13T15:21:06.126Z,101737.78
2018-11-13T15:23:44.332Z,101748.77
2018-11-13T15:26:16.093Z,101744.53
2018-11-13T15:28:49.117Z,101744.62
2018-11-13T15:31:23.948Z,101745.30
2018-11-13T15:33:55.277Z,101744.68
2018-11-13T15:36:29.487Z,101744.91
2018-11-13T15:39:01.908Z,101742.44
2018-11-13T15:41:35.032Z,101743.52
2018-11-13T15:44:07.725Z,101753.56
2018-11-13T15:46:38.811Z,101756.21
2018-11-13T15:49:11.515Z,101758.80
2018-11-13T15:51:43.607Z,101760.13
2018-11-13T15:54:15.116Z,101769.59
2018-11-13T15:56:47.856Z,101769.27
2018-11-13T15:59:19.715Z,101765.37
2018-11-13T16:01:51.211Z,101770.92
2018-11-13T16:04:23.002Z,101780.34
2018-11-13T16:06:55.839Z,101769.55
2018-11-13T16:09:29.174Z,101780.29
2018-11-13T16:12:00.531Z,101792.36
2018-11-13T16:14:31.986Z,101797.81
2018-11-13T16:17:06.204Z,101796.65
2018-11-13T16:19:37.325Z,101793.45
2018-11-13T16:22:09.899Z,101794.84
2018-11-13T16:24:42.076Z,101799.23
2018-11-13T16:27:13.477Z,101798.45
2018-11-13T16:29:45.893Z,101807.28
2018-11-13T16:32:18.913Z,101797.27
2018-11-13T16:34:49.890Z,101809.73
2018-11-13T16:37:22.131Z,101811.44
2018-11-13T16:39:53.515Z,101804.37
2018-11-13T16:42:25.645Z,101818.62
2018-11-13T16:44:57.687Z,101821.78
2018-11-13T16:47:29.974Z,101824.91
2018-11-13T16:50:01.405Z,101823.27
2018-11-13T16:52:33.391Z,101830.89
2018-11-13T16:55:07.235Z,101846.44
2018-11-13T16:57:39.553Z,101844.18
2018-11-13T17:00:15.052Z,101847.27
2018-11-13T17:02:50.560Z,101848.55
2018-11-13T17:05:24.178Z,101850.65
2018-11-13T17:07:55.535Z,101861.33
2018-11-13T17:10:28.334Z,101857.23
2018-11-13T17:13:02.208Z,101855.20
2018-11-13T17:15:34.449Z,101852.47
2018-11-13T17:18:05.590Z,101862.67
2018-11-13T17:20:36.874Z,101865.09
2018-11-13T17:23:07.923Z,101868.14
2018-11-13T17:25:42.200Z,101862.35
2018-11-13T17:28:20.819Z,101873.06
2018-11-13T17:30:56.411Z,101879.34
2018-11-13T17:33:32.414Z,101881.45
2018-11-13T17:36:06.655Z,101884.29
2018-11-13T17:38:38.592Z,101888.42
2018-11-13T17:41:11.945Z,101890.52
2018-11-13T17:43:47.046Z,101890.47
2018-11-13T17:46:18.325Z,101907.76
2018-11-13T17:48:51.193Z,101897.41
2018-11-13T17:51:21.902Z,101893.02
2018-11-13T17:53:53.451Z,101896.45
2018-11-13T17:56:24.478Z,101895.64
2018-11-13T17:58:55.765Z,101889.32
2018-11-13T18:01:28.016Z,101891.35
2018-11-13T18:04:00.088Z,101899.13
2018-11-13T18:06:34.892Z,101901.16
2018-11-13T18:09:16.803Z,101907.39
2018-11-13T18:11:48.329Z,101906.64
2018-11-13T18:14:21.251Z,101900.31
2018-11-13T18:16:52.272Z,101906.27
2018-11-13T18:19:27.986Z,101912.38
2018-11-13T18:22:00.690Z,101913.34
2018-11-13T18:24:44.556Z,101908.03
2018-11-13T18:27:17.887Z,101907.11
2018-11-13T18:29:49.502Z,101914.95
2018-11-13T18:32:22.703Z,101906.64
2018-11-13T18:34:54.754Z,101906.59
2018-11-13T18:37:26.155Z,101908.41
2018-11-13T18:40:03.273Z,101909.10
2018-11-13T18:42:34.787Z,101913.94
2018-11-13T18:45:09.239Z,101917.30
2018-11-13T18:47:46.451Z,101922.19
2018-11-13T18:50:19.772Z,101923.05
2018-11-13T18:52:50.848Z,101941.77
2018-11-13T18:55:24.148Z,101945.15
2018-11-13T18:57:56.344Z,101941.55
2018-11-13T19:00:32.932Z,101947.71
2018-11-13T19:03:05.006Z,101947.19
2018-11-13T19:05:36.224Z,101942.20
2018-11-13T19:08:09.196Z,101942.13
2018-11-13T19:10:48.047Z,101955.55
2018-11-13T19:13:21.196Z,101955.86
2018-11-13T19:16:02.861Z,101958.12
2018-11-13T19:18:36.716Z,101957.20
2018-11-13T19:21:10.418Z,101954.52
2018-11-13T19:23:42.204Z,101962.14
2018-11-13T19:26:15.643Z,101961.59
2018-11-13T19:28:50.178Z,101958.77
2018-11-13T19:31:21.007Z,101964.82
2018-11-13T19:33:53.482Z,101976.56
2018-11-13T19:36:29.233Z,101972.81
2018-11-13T19:39:00.299Z,101976.20
2018-11-13T19:41:34.615Z,101976.20
2018-11-13T19:44:06.279Z,101969.77
2018-11-13T19:46:38.964Z,101976.79
2018-11-13T19:49:09.889Z,101984.34
2018-11-13T19:51:40.667Z,101986.28
2018-11-13T19:54:11.791Z,101989.66
2018-11-13T19:56:43.114Z,101989.92
2018-11-13T19:59:14.848Z,101994.27
2018-11-13T20:01:49.922Z,101993.80
2018-11-13T20:04:21.575Z,101981.23
2018-11-13T20:07:04.403Z,102010.37
2018-11-13T20:09:35.269Z,102007.36
2018-11-13T20:12:08.586Z,102007.78
2018-11-13T20:14:41.449Z,102018.95
2018-11-13T20:17:14.260Z,102019.16
2018-11-13T20:19:48.154Z,102026.93
2018-11-13T20:22:19.639Z,102024.13
2018-11-13T20:24:51.509Z,102021.23
2018-11-13T20:27:24.154Z,102026.69
2018-11-13T20:29:56.091Z,102018.95
2018-11-13T20:32:29.872Z,102020.88
2018-11-13T20:35:01.492Z,102028.70
2018-11-13T20:37:32.933Z,102020.97
2018-11-13T20:40:07.024Z,102023.45
2018-11-13T20:42:38.865Z,102030.81
2018-11-13T20:45:12.809Z,102030.81
2018-11-13T20:47:44.969Z,102030.81
2018-11-13T20:50:21.530Z,102033.50
2018-11-13T20:52:54.220Z,102034.61
2018-11-13T20:55:25.788Z,102032.59
2018-11-13T20:57:57.824Z,102035.38
2018-11-13T21:00:36.963Z,102045.48
2018-11-13T21:03:11.749Z,102060.58
2018-11-13T21:05:45.101Z,102060.16
2018-11-13T21:08:17.614Z,102054.92
2018-11-13T21:11:00.932Z,102060.76
2018-11-13T21:13:33.781Z,102065.12
2018-11-13T21:18:43.889Z,102070.30
2018-11-13T21:21:17.675Z,102062.69
2018-11-13T21:23:58.239Z,102072.83
2018-11-13T21:26:32.465Z,102072.50
2018-11-13T21:29:05.818Z,102075.13
2018-11-13T21:31:50.939Z,102076.04
2018-11-13T21:34:25.909Z,102085.33
2018-11-13T21:37:05.227Z,102092.02
2018-11-13T21:39:44.271Z,102086.66
2018-11-13T21:42:15.403Z,102094.22
2018-11-13T21:44:58.122Z,102097.24
2018-11-13T21:47:31.873Z,102095.04
2018-11-13T21:50:04.405Z,102113.16
2018-11-13T21:52:41.224Z,102108.05
2018-11-13T21:55:22.061Z,102104.09
2018-11-13T21:57:57.041Z,102106.71
2018-11-13T22:00:41.239Z,102110.77
2018-11-13T22:03:13.222Z,102117.43
2018-11-13T22:05:46.139Z,102122.31
2018-11-13T22:08:26.027Z,102131.70
2018-11-13T22:14:02.442Z,102133.89
2018-11-13T22:16:35.152Z,102144.57
2018-11-13T22:19:12.194Z,102145.95
2018-11-13T22:21:51.305Z,102151.27
2018-11-13T22:24:23.311Z,102153.61
2018-11-13T22:26:58.286Z,102151.45
2018-11-13T22:29:37.131Z,102156.89
2018-11-13T22:32:08.715Z,102152.75
2018-11-13T22:34:40.336Z,102159.01
2018-11-13T22:37:11.879Z,102157.16
2018-11-13T22:39:47.684Z,102168.30
2018-11-13T22:42:19.009Z,102179.50
2018-11-13T22:44:52.736Z,102174.70
2018-11-13T22:47:25.791Z,102173.75
2018-11-13T22:49:59.993Z,102171.06
2018-11-13T22:52:36.190Z,102172.92
2018-11-13T22:55:13.164Z,102176.91
2018-11-13T22:57:44.914Z,102176.59
2018-11-13T23:00:21.921Z,102182.30
2018-11-13T23:02:54.454Z,102181.41
2018-11-13T23:05:25.352Z,102190.38
2018-11-13T23:07:56.124Z,102194.75
2018-11-13T23:10:28.526Z,102199.64
2018-11-13T23:13:01.089Z,102197.87
2018-11-13T23:15:32.120Z,102194.19
2018-11-13T23:18:03.072Z,102198.86
2018-11-13T23:20:34.433Z,102197.91
2018-11-13T23:23:05.359Z,102194.28
2018-11-13T23:25:36.258Z,102199.59
2018-11-13T23:28:08.080Z,102194.92
2018-11-13T23:30:39.283Z,102192.84
2018-11-13T23:33:10.093Z,102201.36
2018-11-13T23:35:43.082Z,102213.38
2018-11-13T23:38:14.324Z,102200.77
2018-11-13T23:40:45.157Z,102203.56
2018-11-13T23:43:16.228Z,102213.69
2018-11-13T23:45:47.780Z,102203.91
2018-11-13T23:49:22.212Z,102209.75
2018-11-13T23:51:53.225Z,102224.48
2018-11-13T23:54:26.216Z,102222.67
2018-11-13T23:56:57.052Z,102224.45
2018-11-13T23:59:30.966Z,102227.00
